Terminal Aerodrome Forecast
Issued by NWS

Home | Current Version | Previous Version | Text Only | Print | Product List | Glossary On
Versions: 1 2 3 4 5 6 7 8 9 10 11 12 13 14 15 16 17 18 19 20 21 22 23 24 25
000
FTUS44 KOUN 171743
TAFGAG
TAF
KGAG 171743Z 1718/1818 15012KT P6SM OVC040
      TEMPO 1718/1722 3SM -RA OVC020
     FM172200 15010KT 4SM BR OVC015
      TEMPO 1805/1809 3SM -RA OVC007
     FM180900 04006KT 2SM BR OVC005 PROB30 1809/1815 1SM -DZ BR
      OVC001=

USA.gov is the U.S. government's official web portal to all federal, state and local government web resources and services.